SAS75G LEMG-ENGM
Flight info
| Callsign | SAS75G |
|---|---|
| Flight time | N/A |
| Altitude | 34000 |
| Route | BLN DCT MORAL DCT BEXID DCT VTB DCT RBO N867 BLV DCT BISKA DCT BADRU DCT BELEN DCT DIDIG/N0450F360 DCT MOKOR DCT TERPO DCT RINSO DCT EKRAS DCT AKIKI DCT GARMI UN867 AVANT/N0450F370 DCT DIGSU P144 SAMHO DCT GIGUL DCT ROPAL DCT VAXIT DCT KARLI DCT RIVEX DCT OSKOM DCT RIPAM |
| Aircraft | A320/M-SDE3FGHIRWY/LB1 |
Departure
| Time | 2026-05-06 16:43 |
|---|---|
| Airport | Málaga-Costa del Sol Airport (LEMG) |
Arrival
| Time | N/A |
|---|---|
| Airport | Oslo-Gardermoen International Airport (ENGM) |
| Time | Latitude | Longitude | Altitude | Speed | Heading |
|---|---|---|---|---|---|
| 2026-05-06 16:02 | 36.67832 | -4.49426 | 40 ft | 0 kts | 213° |
| 2026-05-06 16:15 | 36.67833 | -4.49426 | 42 ft | 0 kts | 213° |
| 2026-05-06 16:19 | 36.67833 | -4.49425 | 42 ft | 0 kts | 213° |
| 2026-05-06 16:32 | 36.67852 | -4.49411 | 41 ft | 4 kts | 202° |
| 2026-05-06 16:33 | 36.67878 | -4.49403 | 41 ft | 4 kts | 180° |
| 2026-05-06 16:33 | 36.67903 | -4.49409 | 40 ft | 4 kts | 144° |
| 2026-05-06 16:33 | 36.67920 | -4.49428 | 41 ft | 4 kts | 136° |
| 2026-05-06 16:34 | 36.67958 | -4.49476 | 42 ft | 4 kts | 131° |
| 2026-05-06 16:34 | 36.67976 | -4.49501 | 42 ft | 4 kts | 130° |
| 2026-05-06 16:34 | 36.67993 | -4.49526 | 36 ft | 3 kts | 132° |
| 2026-05-06 16:34 | 36.68010 | -4.49549 | 37 ft | 4 kts | 141° |
| 2026-05-06 16:35 | 36.68032 | -4.49565 | 40 ft | 4 kts | 168° |
| 2026-05-06 16:35 | 36.68055 | -4.49563 | 39 ft | 4 kts | 208° |
| 2026-05-06 16:35 | 36.68077 | -4.49544 | 42 ft | 4 kts | 222° |
| 2026-05-06 16:35 | 36.68081 | -4.49539 | 42 ft | 2 kts | 221° |
| 2026-05-06 16:38 | 36.68054 | -4.49570 | 46 ft | 11 kts | 222° |
| 2026-05-06 16:38 | 36.67984 | -4.49648 | 42 ft | 15 kts | 222° |
| 2026-05-06 16:38 | 36.67904 | -4.49736 | 42 ft | 16 kts | 220° |
| 2026-05-06 16:39 | 36.67815 | -4.49832 | 42 ft | 18 kts | 222° |
| 2026-05-06 16:39 | 36.67821 | -4.49938 | 42 ft | 16 kts | 314° |
| 2026-05-06 16:39 | 36.67908 | -4.50059 | 42 ft | 21 kts | 311° |
| 2026-05-06 16:39 | 36.68010 | -4.50204 | 42 ft | 23 kts | 311° |
| 2026-05-06 16:40 | 36.68120 | -4.50355 | 42 ft | 24 kts | 311° |
| 2026-05-06 16:40 | 36.68237 | -4.50513 | 42 ft | 25 kts | 311° |
| 2026-05-06 16:40 | 36.68337 | -4.50660 | 42 ft | 16 kts | 291° |
| 2026-05-06 16:40 | 36.68329 | -4.50783 | 48 ft | 14 kts | 297° |
| 2026-05-06 16:41 | 36.68403 | -4.50893 | 49 ft | 19 kts | 312° |
| 2026-05-06 16:41 | 36.68497 | -4.51029 | 54 ft | 21 kts | 303° |
| 2026-05-06 16:41 | 36.68470 | -4.51120 | 55 ft | 2 kts | 200° |
| 2026-05-06 16:42 | 36.68441 | -4.51130 | 52 ft | 14 kts | 194° |
| 2026-05-06 16:42 | 36.68297 | -4.51039 | 56 ft | 44 kts | 131° |
| 2026-05-06 16:42 | 36.67912 | -4.50502 | 54 ft | 119 kts | 131° |
| 2026-05-06 16:42 | 36.67227 | -4.49542 | 57 ft | 174 kts | 132° |
| 2026-05-06 16:43 | 36.66396 | -4.48375 | 633 ft | 184 kts | 132° |
| 2026-05-06 16:43 | 36.65528 | -4.47176 | 1280 ft | 186 kts | 134° |
| 2026-05-06 16:43 | 36.64621 | -4.45915 | 1649 ft | 206 kts | 134° |
| 2026-05-06 16:43 | 36.63629 | -4.44535 | 2018 ft | 225 kts | 134° |
| 2026-05-06 16:44 | 36.62562 | -4.43045 | 2659 ft | 229 kts | 132° |
| 2026-05-06 16:44 | 36.61495 | -4.41553 | 3343 ft | 233 kts | 131° |
| 2026-05-06 16:44 | 36.60435 | -4.40012 | 3992 ft | 237 kts | 122° |
| 2026-05-06 16:44 | 36.59764 | -4.38171 | 4605 ft | 239 kts | 101° |
| 2026-05-06 16:45 | 36.59430 | -4.36138 | 5276 ft | 242 kts | 99° |
| 2026-05-06 16:45 | 36.59089 | -4.34070 | 5980 ft | 244 kts | 100° |
| 2026-05-06 16:45 | 36.58740 | -4.31986 | 6662 ft | 247 kts | 100° |
| 2026-05-06 16:45 | 36.58540 | -4.29858 | 7289 ft | 250 kts | 85° |
| 2026-05-06 16:46 | 36.58904 | -4.27729 | 7811 ft | 258 kts | 66° |
| 2026-05-06 16:46 | 36.59866 | -4.25808 | 8279 ft | 266 kts | 48° |
| 2026-05-06 16:46 | 36.61041 | -4.24000 | 8899 ft | 272 kts | 50° |
| 2026-05-06 16:46 | 36.62259 | -4.22180 | 9544 ft | 276 kts | 43° |
| 2026-05-06 16:47 | 36.63786 | -4.20720 | 10103 ft | 281 kts | 27° |
| 2026-05-06 16:47 | 36.65654 | -4.19764 | 10257 ft | 302 kts | 16° |
| 2026-05-06 16:47 | 36.67724 | -4.18930 | 10400 ft | 324 kts | 17° |
| 2026-05-06 16:47 | 36.69942 | -4.18039 | 10516 ft | 345 kts | 17° |
| 2026-05-06 16:48 | 36.72277 | -4.17103 | 10814 ft | 358 kts | 16° |
| 2026-05-06 16:48 | 36.74673 | -4.16163 | 11363 ft | 363 kts | 16° |
| 2026-05-06 16:48 | 36.77102 | -4.15220 | 11957 ft | 367 kts | 16° |
| 2026-05-06 16:48 | 36.79550 | -4.14272 | 12535 ft | 370 kts | 16° |
| 2026-05-06 16:49 | 36.82027 | -4.13312 | 13113 ft | 374 kts | 16° |
| 2026-05-06 16:49 | 36.84523 | -4.12342 | 13690 ft | 378 kts | 16° |
| 2026-05-06 16:49 | 36.87046 | -4.11361 | 14225 ft | 381 kts | 16° |
| 2026-05-06 16:49 | 36.89588 | -4.10373 | 14725 ft | 384 kts | 16° |
| 2026-05-06 16:50 | 36.92149 | -4.09373 | 15246 ft | 388 kts | 16° |
| 2026-05-06 16:50 | 36.94741 | -4.08357 | 15746 ft | 391 kts | 16° |
| 2026-05-06 16:50 | 36.97348 | -4.07335 | 16245 ft | 395 kts | 16° |
| 2026-05-06 16:50 | 36.99083 | -4.06654 | 16587 ft | 396 kts | 16° |
| 2026-05-06 16:51 | 37.02591 | -4.05280 | 17274 ft | 400 kts | 15° |
| 2026-05-06 16:51 | 37.05262 | -4.04235 | 17808 ft | 404 kts | 15° |
| 2026-05-06 16:51 | 37.07953 | -4.03181 | 18303 ft | 407 kts | 15° |
| 2026-05-06 16:51 | 37.10671 | -4.02114 | 18765 ft | 411 kts | 15° |
| 2026-05-06 16:52 | 37.13409 | -4.01038 | 19221 ft | 414 kts | 15° |
| 2026-05-06 16:52 | 37.16173 | -3.99946 | 19688 ft | 418 kts | 15° |
| 2026-05-06 16:52 | 37.18958 | -3.98846 | 20160 ft | 422 kts | 15° |
| 2026-05-06 16:52 | 37.21772 | -3.97759 | 20592 ft | 425 kts | 14° |
| 2026-05-06 16:53 | 37.24620 | -3.96691 | 21022 ft | 428 kts | 14° |
| 2026-05-06 16:53 | 37.27488 | -3.95634 | 21436 ft | 431 kts | 13° |
| 2026-05-06 16:53 | 37.30383 | -3.94572 | 21840 ft | 434 kts | 13° |
| 2026-05-06 16:53 | 37.32347 | -3.93850 | 22125 ft | 436 kts | 13° |
| 2026-05-06 16:54 | 37.35268 | -3.92770 | 22518 ft | 439 kts | 13° |
| 2026-05-06 16:54 | 37.38213 | -3.91675 | 22900 ft | 443 kts | 13° |
| 2026-05-06 16:54 | 37.41176 | -3.90566 | 23283 ft | 446 kts | 13° |
| 2026-05-06 16:54 | 37.44147 | -3.89450 | 23691 ft | 446 kts | 13° |
| 2026-05-06 16:55 | 37.47127 | -3.88327 | 24016 ft | 448 kts | 13° |
| 2026-05-06 16:55 | 37.50123 | -3.87199 | 24316 ft | 451 kts | 13° |
| 2026-05-06 16:55 | 37.53137 | -3.86063 | 24610 ft | 454 kts | 13° |
| 2026-05-06 16:55 | 37.56167 | -3.84918 | 24895 ft | 457 kts | 13° |
| 2026-05-06 16:56 | 37.59181 | -3.83782 | 25164 ft | 459 kts | 13° |
| 2026-05-06 16:56 | 37.62253 | -3.82625 | 25433 ft | 463 kts | 13° |
| 2026-05-06 16:56 | 37.65351 | -3.81461 | 25714 ft | 465 kts | 13° |
| 2026-05-06 16:56 | 37.68459 | -3.80289 | 26024 ft | 467 kts | 13° |
| 2026-05-06 16:57 | 37.71582 | -3.79108 | 26342 ft | 469 kts | 12° |
| 2026-05-06 16:57 | 37.74719 | -3.77921 | 26609 ft | 472 kts | 12° |
| 2026-05-06 16:57 | 37.77873 | -3.76724 | 26874 ft | 474 kts | 12° |
| 2026-05-06 16:57 | 37.81030 | -3.75524 | 27227 ft | 474 kts | 12° |
| 2026-05-06 16:58 | 37.84191 | -3.74324 | 27598 ft | 475 kts | 12° |
| 2026-05-06 16:58 | 37.87357 | -3.73123 | 27981 ft | 475 kts | 12° |
| 2026-05-06 16:58 | 37.90525 | -3.71920 | 28349 ft | 476 kts | 12° |
| 2026-05-06 16:58 | 37.93699 | -3.70709 | 28694 ft | 477 kts | 12° |
| 2026-05-06 16:59 | 37.96884 | -3.69494 | 29039 ft | 478 kts | 12° |
| 2026-05-06 16:59 | 38.00075 | -3.68279 | 29402 ft | 478 kts | 12° |
| 2026-05-06 16:59 | 38.03261 | -3.67063 | 29772 ft | 479 kts | 12° |
| 2026-05-06 16:59 | 38.06456 | -3.65842 | 30103 ft | 480 kts | 12° |
| 2026-05-06 17:00 | 38.09648 | -3.64622 | 30432 ft | 480 kts | 12° |
| 2026-05-06 17:00 | 38.12849 | -3.63399 | 30763 ft | 479 kts | 11° |
| 2026-05-06 17:00 | 38.16077 | -3.62471 | 31110 ft | 473 kts | 2° |
| 2026-05-06 17:00 | 38.19330 | -3.62067 | 31424 ft | 469 kts | 358° |
| 2026-05-06 17:01 | 38.22587 | -3.61759 | 31781 ft | 468 kts | 358° |
| 2026-05-06 17:01 | 38.25833 | -3.61453 | 32151 ft | 468 kts | 357° |
| 2026-05-06 17:01 | 38.29074 | -3.61146 | 32516 ft | 467 kts | 357° |
| 2026-05-06 17:01 | 38.32312 | -3.60838 | 32888 ft | 466 kts | 357° |
| 2026-05-06 17:02 | 38.35546 | -3.60528 | 33254 ft | 466 kts | 357° |
| 2026-05-06 17:02 | 38.38778 | -3.60213 | 33611 ft | 465 kts | 357° |
| 2026-05-06 17:02 | 38.42001 | -3.59896 | 33922 ft | 464 kts | 357° |
| 2026-05-06 17:02 | 38.45216 | -3.59579 | 34200 ft | 463 kts | 357° |
| 2026-05-06 17:03 | 38.48431 | -3.59262 | 34454 ft | 463 kts | 357° |
| 2026-05-06 17:03 | 38.51634 | -3.58945 | 34715 ft | 462 kts | 357° |
| 2026-05-06 17:03 | 38.54834 | -3.58631 | 34983 ft | 461 kts | 357° |
| 2026-05-06 17:03 | 38.58029 | -3.58318 | 35243 ft | 460 kts | 357° |
| 2026-05-06 17:04 | 38.61217 | -3.58009 | 35534 ft | 458 kts | 358° |
| 2026-05-06 17:04 | 38.64386 | -3.57703 | 35805 ft | 457 kts | 358° |
| 2026-05-06 17:04 | 38.67512 | -3.57402 | 36054 ft | 456 kts | 358° |
| 2026-05-06 17:04 | 38.70669 | -3.57098 | 36279 ft | 455 kts | 358° |
| 2026-05-06 17:05 | 38.73824 | -3.56794 | 36501 ft | 454 kts | 358° |
| 2026-05-06 17:05 | 38.76967 | -3.56486 | 36715 ft | 453 kts | 358° |
| 2026-05-06 17:05 | 38.80112 | -3.56174 | 36857 ft | 453 kts | 358° |
| 2026-05-06 17:06 | 38.86444 | -3.55551 | 36883 ft | 458 kts | 359° |
| 2026-05-06 17:06 | 38.92791 | -3.54923 | 36880 ft | 458 kts | 359° |
| 2026-05-06 17:07 | 38.99142 | -3.54302 | 36888 ft | 457 kts | 359° |
| 2026-05-06 17:07 | 39.05487 | -3.53686 | 36883 ft | 457 kts | 359° |
| 2026-05-06 17:08 | 39.11831 | -3.53057 | 36903 ft | 457 kts | 359° |
| 2026-05-06 17:08 | 39.18177 | -3.52417 | 36904 ft | 457 kts | 359° |
| 2026-05-06 17:09 | 39.24508 | -3.51779 | 37183 ft | 455 kts | 359° |
| 2026-05-06 17:09 | 39.27657 | -3.51420 | 37400 ft | 455 kts | 0° |
| 2026-05-06 17:09 | 39.30804 | -3.50980 | 37619 ft | 455 kts | 1° |
| 2026-05-06 17:09 | 39.33947 | -3.50481 | 37832 ft | 454 kts | 2° |
| 2026-05-06 17:10 | 39.37072 | -3.49952 | 37896 ft | 454 kts | 2° |
| 2026-05-06 17:10 | 39.43327 | -3.48893 | 37896 ft | 452 kts | 2° |
| 2026-05-06 17:11 | 39.49566 | -3.47899 | 37898 ft | 452 kts | 1° |
| 2026-05-06 17:11 | 39.55801 | -3.46947 | 37895 ft | 450 kts | 2° |
| 2026-05-06 17:12 | 39.62023 | -3.45983 | 37902 ft | 450 kts | 2° |
| 2026-05-06 17:12 | 39.68235 | -3.45008 | 37908 ft | 450 kts | 2° |
| 2026-05-06 17:13 | 39.74462 | -3.44020 | 37921 ft | 451 kts | 2° |
| 2026-05-06 17:13 | 39.80644 | -3.43045 | 37929 ft | 450 kts | 2° |
| 2026-05-06 17:14 | 39.86867 | -3.42058 | 37929 ft | 450 kts | 2° |
| 2026-05-06 17:14 | 39.93088 | -3.41067 | 37930 ft | 450 kts | 2° |
| 2026-05-06 17:15 | 39.99303 | -3.40083 | 37956 ft | 450 kts | 2° |
| 2026-05-06 17:15 | 40.05519 | -3.39102 | 37946 ft | 449 kts | 2° |
| 2026-05-06 17:16 | 40.11727 | -3.38112 | 37944 ft | 449 kts | 2° |
| 2026-05-06 17:16 | 40.17927 | -3.37119 | 37943 ft | 449 kts | 2° |
| 2026-05-06 17:17 | 40.24125 | -3.36120 | 37952 ft | 449 kts | 2° |
| 2026-05-06 17:17 | 40.30324 | -3.35129 | 37947 ft | 449 kts | 2° |
| 2026-05-06 17:18 | 40.36520 | -3.34143 | 37942 ft | 448 kts | 2° |
| 2026-05-06 17:18 | 40.42714 | -3.33150 | 37940 ft | 448 kts | 2° |
| 2026-05-06 17:19 | 40.48908 | -3.32150 | 37953 ft | 448 kts | 2° |
| 2026-05-06 17:19 | 40.55098 | -3.31152 | 37947 ft | 448 kts | 2° |
| 2026-05-06 17:20 | 40.61290 | -3.30146 | 37941 ft | 448 kts | 2° |
| 2026-05-06 17:20 | 40.67475 | -3.29140 | 37943 ft | 448 kts | 2° |
| 2026-05-06 17:21 | 40.73665 | -3.28131 | 37946 ft | 448 kts | 2° |
| 2026-05-06 17:21 | 40.79853 | -3.27129 | 37947 ft | 448 kts | 2° |
| 2026-05-06 17:22 | 40.86044 | -3.26124 | 37947 ft | 448 kts | 2° |
| 2026-05-06 17:22 | 40.92235 | -3.25114 | 37948 ft | 448 kts | 2° |
| 2026-05-06 17:23 | 40.98427 | -3.24107 | 37951 ft | 448 kts | 2° |
| 2026-05-06 17:23 | 41.04613 | -3.23095 | 37956 ft | 448 kts | 3° |
| 2026-05-06 17:24 | 41.10804 | -3.22078 | 37979 ft | 448 kts | 3° |
| 2026-05-06 17:24 | 41.16998 | -3.21051 | 37968 ft | 448 kts | 3° |
| 2026-05-06 17:25 | 41.23186 | -3.20030 | 37966 ft | 448 kts | 3° |
| 2026-05-06 17:25 | 41.29333 | -3.19019 | 37963 ft | 448 kts | 3° |
| 2026-05-06 17:26 | 41.35523 | -3.18004 | 37964 ft | 448 kts | 3° |
| 2026-05-06 17:26 | 41.41711 | -3.16983 | 37962 ft | 448 kts | 3° |
| 2026-05-06 17:27 | 41.47901 | -3.15956 | 37969 ft | 448 kts | 3° |
| 2026-05-06 17:27 | 41.54090 | -3.14930 | 37984 ft | 448 kts | 3° |
| 2026-05-06 17:28 | 41.60274 | -3.13896 | 37970 ft | 448 kts | 3° |
| 2026-05-06 17:28 | 41.66461 | -3.12858 | 37965 ft | 448 kts | 3° |
| 2026-05-06 17:29 | 41.72644 | -3.11817 | 37960 ft | 448 kts | 3° |
| 2026-05-06 17:29 | 41.78831 | -3.10775 | 37976 ft | 447 kts | 3° |
| 2026-05-06 17:30 | 41.85002 | -3.09741 | 37980 ft | 447 kts | 3° |
| 2026-05-06 17:30 | 41.91181 | -3.08709 | 37984 ft | 447 kts | 3° |
| 2026-05-06 17:31 | 41.97359 | -3.07669 | 37990 ft | 447 kts | 4° |
| 2026-05-06 17:31 | 42.03527 | -3.06627 | 37998 ft | 446 kts | 4° |
| 2026-05-06 17:32 | 42.09691 | -3.05582 | 37998 ft | 446 kts | 4° |
| 2026-05-06 17:32 | 42.15849 | -3.04539 | 38019 ft | 446 kts | 4° |
| 2026-05-06 17:33 | 42.22011 | -3.03492 | 38015 ft | 446 kts | 4° |
| 2026-05-06 17:33 | 42.28172 | -3.02435 | 38016 ft | 446 kts | 4° |
| 2026-05-06 17:34 | 42.34330 | -3.01380 | 38018 ft | 445 kts | 4° |
| 2026-05-06 17:34 | 42.40475 | -3.00330 | 38034 ft | 445 kts | 4° |
| 2026-05-06 17:35 | 42.46619 | -2.99280 | 38030 ft | 445 kts | 4° |
| 2026-05-06 17:35 | 42.52718 | -2.98243 | 38028 ft | 444 kts | 4° |
| 2026-05-06 17:36 | 42.61922 | -2.96657 | 38036 ft | 444 kts | 4° |
| 2026-05-06 17:36 | 42.68051 | -2.95604 | 38036 ft | 444 kts | 4° |
| 2026-05-06 17:37 | 42.74177 | -2.94545 | 38043 ft | 444 kts | 4° |
| 2026-05-06 17:37 | 42.80301 | -2.93486 | 38040 ft | 444 kts | 4° |
| 2026-05-06 17:38 | 42.86427 | -2.92429 | 38035 ft | 444 kts | 4° |
| 2026-05-06 17:38 | 42.92554 | -2.91361 | 38033 ft | 444 kts | 4° |
| 2026-05-06 17:39 | 42.98681 | -2.90284 | 38051 ft | 444 kts | 4° |
| 2026-05-06 17:39 | 43.04812 | -2.89209 | 38048 ft | 444 kts | 4° |
| 2026-05-06 17:40 | 43.09908 | -2.88318 | 38043 ft | 444 kts | 4° |
| 2026-05-06 17:40 | 43.16034 | -2.87252 | 38050 ft | 444 kts | 4° |
| 2026-05-06 17:41 | 43.22162 | -2.86178 | 38062 ft | 444 kts | 4° |
| 2026-05-06 17:41 | 43.28290 | -2.85102 | 38050 ft | 444 kts | 4° |
| 2026-05-06 17:42 | 43.34413 | -2.84020 | 38047 ft | 444 kts | 4° |
| 2026-05-06 17:42 | 43.40536 | -2.82935 | 38076 ft | 444 kts | 4° |
| 2026-05-06 17:43 | 43.46663 | -2.81862 | 38053 ft | 443 kts | 4° |
| 2026-05-06 17:43 | 43.52783 | -2.80779 | 38042 ft | 443 kts | 4° |
| 2026-05-06 17:44 | 43.58905 | -2.79687 | 38036 ft | 443 kts | 4° |
| 2026-05-06 17:44 | 43.65022 | -2.78593 | 38043 ft | 443 kts | 4° |
| 2026-05-06 17:45 | 43.71137 | -2.77500 | 38039 ft | 443 kts | 4° |
| 2026-05-06 17:45 | 43.77250 | -2.76399 | 38034 ft | 443 kts | 4° |
| 2026-05-06 17:46 | 43.83360 | -2.75307 | 38038 ft | 442 kts | 4° |
| 2026-05-06 17:46 | 43.89461 | -2.74214 | 38029 ft | 442 kts | 5° |
| 2026-05-06 17:47 | 43.95562 | -2.73043 | 38030 ft | 442 kts | 6° |
| 2026-05-06 17:47 | 44.01607 | -2.71681 | 38040 ft | 443 kts | 7° |
| 2026-05-06 17:48 | 44.07679 | -2.70272 | 38028 ft | 442 kts | 7° |
| 2026-05-06 17:48 | 44.13756 | -2.68912 | 38026 ft | 442 kts | 6° |
| 2026-05-06 17:49 | 44.19835 | -2.67581 | 38032 ft | 442 kts | 6° |
| 2026-05-06 17:49 | 44.25905 | -2.66238 | 38035 ft | 441 kts | 6° |
| 2026-05-06 17:50 | 44.31972 | -2.64877 | 38023 ft | 441 kts | 6° |
| 2026-05-06 17:50 | 44.38033 | -2.63517 | 38019 ft | 441 kts | 6° |
| 2026-05-06 17:51 | 44.44095 | -2.62155 | 38029 ft | 441 kts | 6° |
| 2026-05-06 17:51 | 44.50154 | -2.60800 | 38023 ft | 441 kts | 6° |
| 2026-05-06 17:52 | 44.56168 | -2.59448 | 38023 ft | 441 kts | 6° |
| 2026-05-06 17:52 | 44.62221 | -2.58093 | 38025 ft | 441 kts | 6° |
| 2026-05-06 17:53 | 44.68280 | -2.56727 | 38021 ft | 441 kts | 7° |
| 2026-05-06 17:53 | 44.74329 | -2.55351 | 38019 ft | 441 kts | 7° |
| 2026-05-06 17:54 | 44.80389 | -2.53976 | 38018 ft | 441 kts | 6° |
| 2026-05-06 17:54 | 44.86450 | -2.52607 | 38015 ft | 441 kts | 7° |
| 2026-05-06 17:55 | 44.92508 | -2.51224 | 38015 ft | 441 kts | 7° |
| 2026-05-06 17:55 | 44.98563 | -2.49831 | 38021 ft | 441 kts | 7° |
| 2026-05-06 17:56 | 45.04618 | -2.48442 | 38017 ft | 441 kts | 7° |
| 2026-05-06 17:56 | 45.10676 | -2.47058 | 38015 ft | 441 kts | 7° |
| 2026-05-06 17:57 | 45.16725 | -2.45672 | 38019 ft | 441 kts | 7° |
| 2026-05-06 17:57 | 45.22735 | -2.44286 | 38014 ft | 440 kts | 7° |
| 2026-05-06 17:58 | 45.28781 | -2.42887 | 38011 ft | 440 kts | 7° |
| 2026-05-06 17:58 | 45.34823 | -2.41500 | 38008 ft | 440 kts | 7° |
| 2026-05-06 17:59 | 45.40858 | -2.40113 | 38011 ft | 439 kts | 7° |
| 2026-05-06 17:59 | 45.46896 | -2.38706 | 38007 ft | 439 kts | 7° |
| 2026-05-06 18:00 | 45.52929 | -2.37296 | 38006 ft | 439 kts | 7° |
| 2026-05-06 18:00 | 45.58964 | -2.35884 | 38015 ft | 439 kts | 7° |
| 2026-05-06 18:01 | 45.65001 | -2.34466 | 38009 ft | 439 kts | 7° |
| 2026-05-06 18:01 | 45.71037 | -2.33044 | 38005 ft | 440 kts | 7° |
| 2026-05-06 18:02 | 45.77077 | -2.31625 | 38007 ft | 440 kts | 7° |
| 2026-05-06 18:02 | 45.83084 | -2.30213 | 38004 ft | 440 kts | 7° |
| 2026-05-06 18:03 | 45.89135 | -2.28791 | 38004 ft | 440 kts | 7° |
| 2026-05-06 18:03 | 45.95180 | -2.27370 | 38005 ft | 440 kts | 7° |
| 2026-05-06 18:04 | 46.01227 | -2.25951 | 38007 ft | 440 kts | 7° |
| 2026-05-06 18:04 | 46.07273 | -2.24523 | 38005 ft | 440 kts | 7° |
| 2026-05-06 18:05 | 46.13319 | -2.23048 | 38003 ft | 441 kts | 8° |
| 2026-05-06 18:05 | 46.19364 | -2.21562 | 38003 ft | 441 kts | 8° |
| 2026-05-06 18:06 | 46.25406 | -2.20073 | 37995 ft | 441 kts | 8° |
| 2026-05-06 18:06 | 46.31447 | -2.18589 | 37991 ft | 440 kts | 7° |
| 2026-05-06 18:07 | 46.37498 | -2.17108 | 38001 ft | 440 kts | 8° |
| 2026-05-06 18:07 | 46.43542 | -2.15621 | 37997 ft | 440 kts | 8° |
| 2026-05-06 18:08 | 46.49587 | -2.14129 | 37992 ft | 441 kts | 8° |
| 2026-05-06 18:08 | 46.55634 | -2.12633 | 37996 ft | 441 kts | 8° |
| 2026-05-06 18:09 | 46.61679 | -2.11148 | 37997 ft | 440 kts | 8° |
| 2026-05-06 18:09 | 46.67724 | -2.09652 | 37993 ft | 440 kts | 8° |
| 2026-05-06 18:10 | 46.73766 | -2.08141 | 37991 ft | 441 kts | 8° |
| 2026-05-06 18:10 | 46.79808 | -2.06626 | 37993 ft | 441 kts | 8° |
| 2026-05-06 18:11 | 46.85850 | -2.05112 | 37995 ft | 440 kts | 8° |
| 2026-05-06 18:11 | 46.91890 | -2.03603 | 37996 ft | 440 kts | 8° |
| 2026-05-06 18:12 | 46.97929 | -2.02093 | 37996 ft | 441 kts | 8° |
| 2026-05-06 18:12 | 47.03975 | -2.00577 | 37995 ft | 441 kts | 8° |
| 2026-05-06 18:13 | 47.10019 | -1.99075 | 37996 ft | 441 kts | 8° |
| 2026-05-06 18:13 | 47.16070 | -1.97581 | 37996 ft | 441 kts | 8° |
| 2026-05-06 18:14 | 47.22121 | -1.96087 | 37999 ft | 441 kts | 8° |
| 2026-05-06 18:14 | 47.28164 | -1.94576 | 37998 ft | 441 kts | 8° |
| 2026-05-06 18:15 | 47.34151 | -1.92934 | 37995 ft | 441 kts | 15° |
| 2026-05-06 18:15 | 47.39806 | -1.89382 | 37995 ft | 443 kts | 24° |
| 2026-05-06 18:16 | 47.45346 | -1.85387 | 37997 ft | 443 kts | 24° |
| 2026-05-06 18:16 | 47.50895 | -1.81398 | 37999 ft | 443 kts | 24° |
| 2026-05-06 18:17 | 47.56437 | -1.77391 | 37997 ft | 443 kts | 24° |
| 2026-05-06 18:17 | 47.61975 | -1.73377 | 38005 ft | 443 kts | 24° |
| 2026-05-06 18:18 | 47.67518 | -1.69358 | 37999 ft | 443 kts | 24° |
| 2026-05-06 18:18 | 47.73061 | -1.65331 | 38004 ft | 443 kts | 24° |
| 2026-05-06 18:19 | 47.78594 | -1.61301 | 38000 ft | 443 kts | 24° |
| 2026-05-06 18:19 | 47.84128 | -1.57260 | 37995 ft | 443 kts | 25° |
| 2026-05-06 18:20 | 47.89664 | -1.53210 | 37987 ft | 443 kts | 25° |
| 2026-05-06 18:20 | 47.95187 | -1.49157 | 38004 ft | 442 kts | 25° |
| 2026-05-06 18:21 | 48.00768 | -1.45322 | 37996 ft | 440 kts | 16° |
| 2026-05-06 18:21 | 48.06753 | -1.43881 | 38003 ft | 435 kts | 357° |
| 2026-05-06 18:22 | 48.12803 | -1.44297 | 37998 ft | 435 kts | 355° |
| 2026-05-06 18:22 | 48.18853 | -1.44740 | 37991 ft | 435 kts | 355° |
| 2026-05-06 18:23 | 48.24869 | -1.45178 | 38005 ft | 436 kts | 355° |
| 2026-05-06 18:23 | 48.30925 | -1.45612 | 38004 ft | 436 kts | 355° |
| 2026-05-06 18:24 | 48.36982 | -1.46056 | 38002 ft | 436 kts | 355° |
| 2026-05-06 18:24 | 48.43043 | -1.46494 | 38015 ft | 436 kts | 355° |
| 2026-05-06 18:25 | 48.49109 | -1.46926 | 38011 ft | 436 kts | 355° |
| 2026-05-06 18:25 | 48.55163 | -1.47360 | 37999 ft | 436 kts | 355° |
| 2026-05-06 18:26 | 48.61218 | -1.47799 | 38013 ft | 436 kts | 355° |
| 2026-05-06 18:26 | 48.67277 | -1.48247 | 38012 ft | 436 kts | 355° |
| 2026-05-06 18:27 | 48.73332 | -1.48697 | 38006 ft | 436 kts | 355° |
| 2026-05-06 18:27 | 48.78367 | -1.49070 | 38005 ft | 435 kts | 355° |
| 2026-05-06 18:28 | 48.84421 | -1.49519 | 38013 ft | 435 kts | 355° |
| 2026-05-06 18:28 | 48.90478 | -1.49849 | 38016 ft | 436 kts | 2° |
| 2026-05-06 18:29 | 48.96540 | -1.49137 | 38017 ft | 437 kts | 3° |
| 2026-05-06 18:29 | 49.02597 | -1.48431 | 38009 ft | 437 kts | 2° |
| 2026-05-06 18:30 | 49.08660 | -1.47725 | 38026 ft | 437 kts | 3° |
| 2026-05-06 18:30 | 49.14677 | -1.47010 | 38026 ft | 437 kts | 3° |
| 2026-05-06 18:31 | 49.20735 | -1.46285 | 38022 ft | 436 kts | 3° |
| 2026-05-06 18:31 | 49.26782 | -1.45560 | 38022 ft | 436 kts | 3° |
| 2026-05-06 18:32 | 49.32823 | -1.44840 | 38027 ft | 435 kts | 3° |
| 2026-05-06 18:32 | 49.38870 | -1.44115 | 38025 ft | 435 kts | 3° |
| 2026-05-06 18:33 | 49.44910 | -1.43389 | 38024 ft | 435 kts | 3° |
| 2026-05-06 18:33 | 49.50946 | -1.42659 | 38025 ft | 435 kts | 3° |
| 2026-05-06 18:34 | 49.56987 | -1.41927 | 38030 ft | 435 kts | 3° |